createdAt,value
2018-07-13T00:02:14.824Z,12.40
2018-07-13T00:04:43.211Z,14.37
2018-07-13T00:07:11.548Z,12.57
2018-07-13T00:09:39.949Z,12.37
2018-07-13T00:12:08.511Z,11.80
2018-07-13T00:14:36.916Z,10.93
2018-07-13T00:17:06.117Z,12.03
2018-07-13T00:19:34.489Z,11.70
2018-07-13T00:22:02.833Z,11.73
2018-07-13T00:24:31.195Z,11.93
2018-07-13T00:26:59.542Z,11.40
2018-07-13T00:29:27.917Z,12.43
2018-07-13T00:31:56.265Z,11.67
2018-07-13T00:34:24.633Z,11.47
2018-07-13T00:36:53.237Z,11.30
2018-07-13T00:39:21.583Z,11.30
2018-07-13T00:41:49.973Z,11.60
2018-07-13T00:44:18.353Z,11.53
2018-07-13T00:46:46.750Z,11.60
2018-07-13T00:49:15.093Z,12.17
2018-07-13T00:51:43.461Z,12.17
2018-07-13T00:54:11.817Z,11.20
2018-07-13T00:56:40.192Z,11.33
2018-07-13T00:59:08.539Z,10.87
2018-07-13T01:01:36.905Z,12.50
2018-07-13T01:04:05.277Z,12.60
2018-07-13T01:06:33.649Z,15.00
2018-07-13T01:09:01.985Z,15.07
2018-07-13T01:11:30.361Z,16.30
2018-07-13T01:13:58.712Z,16.60
2018-07-13T01:16:27.085Z,15.53
2018-07-13T01:18:55.440Z,15.43
2018-07-13T01:21:23.812Z,15.10
2018-07-13T01:23:52.181Z,15.40
2018-07-13T01:26:20.552Z,14.90
2018-07-13T01:28:49.053Z,16.03
2018-07-13T01:31:17.429Z,15.23
2018-07-13T01:33:45.777Z,14.60
2018-07-13T01:36:14.156Z,15.27
2018-07-13T01:38:42.725Z,14.17
2018-07-13T01:41:11.132Z,14.07
2018-07-13T01:43:39.542Z,14.23
2018-07-13T01:46:07.933Z,13.60
2018-07-13T01:48:36.272Z,13.90
2018-07-13T01:51:04.673Z,15.03
2018-07-13T01:53:33.049Z,13.70
2018-07-13T01:56:01.407Z,14.80
2018-07-13T01:58:29.745Z,13.37
2018-07-13T02:00:58.136Z,13.57
2018-07-13T02:03:26.501Z,13.50
2018-07-13T02:05:54.836Z,14.67
2018-07-13T02:08:23.240Z,14.40
2018-07-13T02:10:51.564Z,15.70
2018-07-13T02:13:19.897Z,15.97
2018-07-13T02:15:48.232Z,15.27
2018-07-13T02:18:16.575Z,15.33
2018-07-13T02:20:44.973Z,16.00
2018-07-13T02:23:13.322Z,15.30
2018-07-13T02:25:41.779Z,15.90
2018-07-13T02:28:10.157Z,16.50
2018-07-13T02:30:38.486Z,13.70
2018-07-13T02:33:06.854Z,14.70
2018-07-13T02:35:35.219Z,15.27
2018-07-13T02:38:03.723Z,15.20
2018-07-13T02:40:32.062Z,15.97
2018-07-13T02:43:00.428Z,16.03
2018-07-13T02:45:28.770Z,15.50
2018-07-13T02:47:57.129Z,16.50
2018-07-13T02:50:25.526Z,17.03
2018-07-13T02:52:53.857Z,16.87
2018-07-13T02:55:22.209Z,16.47
2018-07-13T02:57:50.586Z,17.47
2018-07-13T03:00:18.951Z,18.93
2018-07-13T03:02:47.341Z,15.87
2018-07-13T03:05:15.678Z,18.00
2018-07-13T03:07:44.044Z,18.77
2018-07-13T03:10:12.390Z,18.47
2018-07-13T03:12:40.768Z,17.00
2018-07-13T03:15:09.145Z,18.80
2018-07-13T03:17:37.555Z,16.67
2018-07-13T03:20:05.917Z,16.00
2018-07-13T03:22:34.293Z,16.00
2018-07-13T03:25:02.649Z,18.20
2018-07-13T03:27:31.029Z,17.20
2018-07-13T03:29:59.374Z,17.87
2018-07-13T03:32:27.709Z,19.00
2018-07-13T03:34:56.085Z,18.00
2018-07-13T03:37:24.497Z,17.60
2018-07-13T03:39:52.877Z,16.67
2018-07-13T03:42:21.225Z,18.37
2018-07-13T03:44:49.592Z,18.27
2018-07-13T03:47:17.679Z,19.60
2018-07-13T03:49:46.039Z,19.40
2018-07-13T03:52:14.379Z,20.20
2018-07-13T03:54:42.752Z,20.97
2018-07-13T03:57:11.085Z,18.23
2018-07-13T03:59:39.445Z,16.57
2018-07-13T04:02:07.846Z,18.90
2018-07-13T04:04:36.216Z,18.40
2018-07-13T04:07:04.619Z,19.27
2018-07-13T04:09:32.977Z,20.50
2018-07-13T04:12:01.340Z,17.67
2018-07-13T04:14:29.768Z,17.50
2018-07-13T04:16:58.134Z,19.67
2018-07-13T04:19:26.525Z,18.30
2018-07-13T04:21:54.923Z,19.00
2018-07-13T04:24:23.340Z,17.67
2018-07-13T04:26:51.885Z,19.60
2018-07-13T04:29:20.501Z,17.57
2018-07-13T04:31:48.861Z,17.40
2018-07-13T04:34:17.325Z,17.90
2018-07-13T04:36:45.673Z,18.30
2018-07-13T04:39:14.108Z,17.43
2018-07-13T04:41:42.609Z,19.00
2018-07-13T04:44:11.018Z,17.17
2018-07-13T04:46:39.462Z,19.83
2018-07-13T04:49:07.877Z,18.80
2018-07-13T04:51:36.300Z,20.10
2018-07-13T04:54:04.749Z,19.97
2018-07-13T04:56:33.541Z,21.23
2018-07-13T04:59:01.983Z,19.37
2018-07-13T05:01:30.416Z,18.77
2018-07-13T05:03:58.872Z,20.77
2018-07-13T05:06:27.305Z,21.90
2018-07-13T05:08:56.201Z,21.00
2018-07-13T05:11:24.597Z,19.70
2018-07-13T05:13:52.974Z,21.83
2018-07-13T05:16:21.477Z,22.47
2018-07-13T05:18:49.821Z,21.90
2018-07-13T05:21:18.282Z,23.40
2018-07-13T05:23:46.997Z,23.90
2018-07-13T05:26:15.427Z,23.23
2018-07-13T05:28:43.853Z,22.37
2018-07-13T05:31:12.433Z,24.23
2018-07-13T05:33:41.017Z,23.10
2018-07-13T05:36:09.465Z,21.30
2018-07-13T05:38:37.880Z,19.80
2018-07-13T05:41:06.320Z,21.30
2018-07-13T05:43:34.736Z,19.33
2018-07-13T05:46:03.188Z,20.03
2018-07-13T05:48:32.510Z,18.80
2018-07-13T05:51:00.937Z,18.13
2018-07-13T05:53:29.358Z,18.70
2018-07-13T05:55:57.781Z,19.07
2018-07-13T05:58:26.170Z,18.63
2018-07-13T06:00:54.621Z,18.97
2018-07-13T06:03:23.009Z,18.57
2018-07-13T06:05:51.468Z,17.60
2018-07-13T06:08:19.857Z,18.03
2018-07-13T06:10:48.265Z,17.87
2018-07-13T06:13:16.676Z,16.50
2018-07-13T06:15:45.205Z,17.87
2018-07-13T06:18:13.557Z,15.87
2018-07-13T06:20:41.933Z,16.20
2018-07-13T06:23:10.277Z,16.53
2018-07-13T06:25:38.633Z,15.03
2018-07-13T06:28:06.993Z,14.90
2018-07-13T06:30:35.451Z,14.77
2018-07-13T06:33:03.817Z,14.60
2018-07-13T06:35:32.165Z,14.30
2018-07-13T06:38:00.534Z,14.50
2018-07-13T06:40:29.104Z,13.57
2018-07-13T06:42:57.452Z,13.43
2018-07-13T06:45:25.846Z,14.40
2018-07-13T06:47:54.242Z,13.10
2018-07-13T06:50:22.627Z,14.30
2018-07-13T06:52:51.238Z,12.80
2018-07-13T06:55:19.665Z,12.97
2018-07-13T06:57:59.412Z,12.00
2018-07-13T07:01:07.325Z,10.97
2018-07-13T07:03:43.046Z,11.50
2018-07-13T07:06:13.890Z,11.50
2018-07-13T07:08:47.209Z,10.97
2018-07-13T07:11:16.043Z,9.80
2018-07-13T07:13:44.958Z,9.43
2018-07-13T07:16:13.423Z,8.63
2018-07-13T07:18:41.950Z,8.90
2018-07-13T07:21:10.477Z,7.70
2018-07-13T07:23:39.085Z,8.93
2018-07-13T07:26:07.540Z,9.73
2018-07-13T07:28:35.965Z,9.80
2018-07-13T07:31:04.365Z,8.90
2018-07-13T07:33:32.733Z,8.43
2018-07-13T07:36:01.053Z,6.90
2018-07-13T07:38:29.555Z,7.63
2018-07-13T07:40:57.909Z,6.93
2018-07-13T07:43:26.324Z,7.27
2018-07-13T07:45:54.681Z,6.90
2018-07-13T07:48:23.054Z,7.17
2018-07-13T07:50:51.466Z,8.30
2018-07-13T07:53:19.876Z,7.87
2018-07-13T07:55:48.272Z,7.67
2018-07-13T07:58:16.677Z,6.80
2018-07-13T08:00:45.048Z,8.33
2018-07-13T08:03:13.411Z,7.63
2018-07-13T08:05:41.784Z,8.67
2018-07-13T08:08:10.185Z,9.17
2018-07-13T08:10:38.560Z,7.57
2018-07-13T08:13:06.973Z,9.43
2018-07-13T08:15:35.417Z,9.40
2018-07-13T08:18:03.862Z,8.90
2018-07-13T08:20:33.841Z,10.03
2018-07-13T08:23:06.845Z,9.93
2018-07-13T08:25:35.600Z,9.97
2018-07-13T08:28:04.699Z,10.00
2018-07-13T08:30:35.828Z,7.83
2018-07-13T08:33:04.190Z,9.00
2018-07-13T08:35:32.769Z,8.73
2018-07-13T08:38:01.149Z,7.90
2018-07-13T08:40:29.634Z,9.30
2018-07-13T08:42:58.062Z,8.67
2018-07-13T08:45:26.429Z,8.77
2018-07-13T08:47:54.908Z,9.00
2018-07-13T08:50:23.423Z,7.97
2018-07-13T08:52:52.508Z,8.90
2018-07-13T08:55:20.929Z,7.77
2018-07-13T08:57:49.988Z,7.60
2018-07-13T09:00:18.385Z,8.13
2018-07-13T09:02:46.753Z,7.50
2018-07-13T09:05:15.129Z,8.57
2018-07-13T09:07:43.497Z,8.57
2018-07-13T09:10:12.980Z,8.47
2018-07-13T09:12:41.828Z,9.00
2018-07-13T09:15:11.805Z,8.23
2018-07-13T09:17:40.188Z,7.67
2018-07-13T09:20:10.285Z,8.33
2018-07-13T09:22:38.664Z,7.83
2018-07-13T09:25:07.830Z,8.77
2018-07-13T09:27:36.157Z,7.77
2018-07-13T09:30:04.811Z,7.30
2018-07-13T09:32:33.221Z,6.87
2018-07-13T09:35:01.598Z,7.10
2018-07-13T09:37:29.982Z,7.80
2018-07-13T09:39:58.373Z,7.03
2018-07-13T09:42:26.792Z,7.23
2018-07-13T09:44:55.167Z,6.30
2018-07-13T09:47:23.544Z,5.60
2018-07-13T09:49:51.912Z,5.90
2018-07-13T09:52:20.273Z,5.90
2018-07-13T09:54:48.738Z,5.63
2018-07-13T09:57:17.130Z,6.43
2018-07-13T09:59:45.235Z,6.90
2018-07-13T10:02:13.716Z,6.03
2018-07-13T10:04:42.133Z,4.40
2018-07-13T10:07:10.673Z,4.37
2018-07-13T10:09:39.070Z,4.80
2018-07-13T10:12:07.568Z,4.50
2018-07-13T10:14:35.949Z,4.53
2018-07-13T10:17:04.397Z,4.33
2018-07-13T10:19:32.813Z,4.00
2018-07-13T10:22:01.273Z,4.50
2018-07-13T10:24:30.797Z,3.63
2018-07-13T10:26:59.457Z,4.10
2018-07-13T10:29:30.820Z,4.00
2018-07-13T10:32:00.046Z,4.77
2018-07-13T10:34:28.445Z,4.60
2018-07-13T10:37:02.013Z,4.70
2018-07-13T10:39:30.601Z,4.90
2018-07-13T10:41:58.960Z,4.30
2018-07-13T10:44:27.284Z,5.00
2018-07-13T10:46:55.704Z,4.50
2018-07-13T10:49:24.027Z,4.70
2018-07-13T10:51:52.729Z,4.13
2018-07-13T10:54:21.537Z,3.57
2018-07-13T10:56:49.886Z,3.20
2018-07-13T10:59:18.326Z,3.13
2018-07-13T11:01:46.823Z,2.90
2018-07-13T11:04:15.156Z,2.93
2018-07-13T11:06:44.386Z,3.80
2018-07-13T11:09:12.749Z,3.20
2018-07-13T11:11:41.089Z,3.00
2018-07-13T11:14:09.929Z,2.40
2018-07-13T11:16:38.629Z,2.60
2018-07-13T11:19:06.993Z,2.90
2018-07-13T11:21:35.429Z,2.63
2018-07-13T11:24:03.798Z,2.60
2018-07-13T11:26:32.150Z,3.03
2018-07-13T11:29:00.726Z,2.70
2018-07-13T11:31:29.200Z,2.60
2018-07-13T11:33:57.534Z,2.80
2018-07-13T11:36:25.869Z,2.83
2018-07-13T11:38:54.245Z,3.50
2018-07-13T11:41:22.580Z,2.60
2018-07-13T11:43:51.012Z,3.67
2018-07-13T11:46:19.477Z,3.17
2018-07-13T11:48:47.781Z,2.70
2018-07-13T11:51:16.147Z,2.97
2018-07-13T11:53:44.469Z,3.03
2018-07-13T11:56:13.014Z,3.20
2018-07-13T11:58:41.381Z,3.40
2018-07-13T12:01:09.785Z,3.27
2018-07-13T12:03:38.137Z,3.10
2018-07-13T12:06:06.493Z,3.23
2018-07-13T12:08:34.921Z,3.30
2018-07-13T12:11:03.242Z,3.47
2018-07-13T12:13:31.689Z,2.63
2018-07-13T12:16:00.168Z,2.87
2018-07-13T12:18:28.513Z,2.77
2018-07-13T12:20:56.829Z,3.13
2018-07-13T12:23:25.216Z,3.63
2018-07-13T12:25:53.532Z,3.50
2018-07-13T12:28:22.352Z,3.00
2018-07-13T12:30:50.687Z,4.17
2018-07-13T12:33:19.061Z,3.97
2018-07-13T12:35:47.530Z,4.07
2018-07-13T12:38:15.894Z,3.80
2018-07-13T12:40:44.234Z,4.10
2018-07-13T12:43:12.605Z,4.70
2018-07-13T12:45:40.923Z,3.90
2018-07-13T12:48:09.254Z,4.10
2018-07-13T12:50:37.625Z,3.60
2018-07-13T12:56:09.098Z,3.70
2018-07-13T12:58:37.481Z,4.67
2018-07-13T13:01:05.903Z,3.63
2018-07-13T13:03:34.303Z,4.30
2018-07-13T13:06:02.860Z,3.80
2018-07-13T13:08:32.326Z,3.20
2018-07-13T13:11:01.075Z,3.40
2018-07-13T13:13:29.933Z,4.03
2018-07-13T13:15:58.430Z,3.70
2018-07-13T13:18:26.789Z,3.60
2018-07-13T13:20:55.186Z,3.50
2018-07-13T13:23:23.982Z,3.23
2018-07-13T13:25:53.336Z,3.43
2018-07-13T13:28:22.038Z,3.90
2018-07-13T13:30:50.725Z,3.10
2018-07-13T13:33:19.150Z,4.10
2018-07-13T13:35:47.530Z,3.43
2018-07-13T13:38:15.918Z,4.00
2018-07-13T13:40:44.606Z,5.57
2018-07-13T13:43:13.985Z,3.93
2018-07-13T13:45:43.231Z,4.30
2018-07-13T13:48:12.474Z,3.63
2018-07-13T13:50:41.018Z,3.90
2018-07-13T13:53:09.430Z,3.63
2018-07-13T13:55:37.847Z,3.70
2018-07-13T13:58:06.254Z,3.77
2018-07-13T14:00:34.745Z,3.43
2018-07-13T14:03:03.682Z,3.53
2018-07-13T14:05:32.218Z,4.13
2018-07-13T14:08:01.178Z,3.73
2018-07-13T14:10:30.089Z,4.43
2018-07-13T14:12:58.641Z,4.20
2018-07-13T14:15:27.034Z,3.73
2018-07-13T14:17:55.451Z,3.70
2018-07-13T14:20:24.419Z,3.90
2018-07-13T14:22:53.653Z,3.80
2018-07-13T14:25:23.251Z,3.37
2018-07-13T14:27:52.303Z,3.90
2018-07-13T14:30:21.165Z,3.93
2018-07-13T14:32:49.527Z,3.40
2018-07-13T14:35:17.908Z,4.10
2018-07-13T14:37:46.486Z,4.30
2018-07-13T14:40:15.062Z,4.50
2018-07-13T14:42:43.785Z,3.80
2018-07-13T14:45:13.331Z,4.30
2018-07-13T14:47:42.440Z,4.37
2018-07-13T14:50:10.827Z,4.10
2018-07-13T14:52:39.201Z,4.07
2018-07-13T14:55:07.642Z,4.03
2018-07-13T14:57:36.142Z,3.70
2018-07-13T15:00:04.871Z,4.00
2018-07-13T15:02:33.246Z,4.33
2018-07-13T15:05:01.681Z,3.63
2018-07-13T15:07:30.018Z,3.80
2018-07-13T15:09:58.409Z,4.17
2018-07-13T15:12:26.813Z,4.37
2018-07-13T15:14:55.206Z,4.10
2018-07-13T15:17:23.644Z,4.40
2018-07-13T15:19:51.974Z,4.03
2018-07-13T15:22:20.333Z,3.53
2018-07-13T15:24:48.710Z,3.47
2018-07-13T15:27:17.157Z,4.00
2018-07-13T15:29:45.518Z,4.40
2018-07-13T15:32:13.937Z,4.00
2018-07-13T15:34:42.250Z,3.23
2018-07-13T15:37:10.627Z,3.97
2018-07-13T15:39:38.982Z,3.50
2018-07-13T15:42:07.341Z,3.50
2018-07-13T15:44:36.022Z,3.60
2018-07-13T15:47:04.491Z,3.50
2018-07-13T15:49:32.841Z,3.50
2018-07-13T15:52:01.246Z,3.80
2018-07-13T15:54:29.721Z,4.20
2018-07-13T15:56:58.338Z,3.77
2018-07-13T15:59:26.696Z,3.80
2018-07-13T16:01:55.070Z,3.20
2018-07-13T16:04:23.413Z,3.37
2018-07-13T16:06:51.782Z,3.70
2018-07-13T16:09:20.124Z,3.50
2018-07-13T16:11:48.518Z,2.93
2018-07-13T16:14:16.865Z,3.00
2018-07-13T16:16:45.233Z,2.83
2018-07-13T16:19:13.677Z,3.10
2018-07-13T16:21:42.051Z,3.30
2018-07-13T16:24:10.433Z,3.60
2018-07-13T16:26:38.942Z,3.43
2018-07-13T16:29:07.402Z,3.43
2018-07-13T16:31:35.779Z,4.03
2018-07-13T16:34:04.185Z,3.43
2018-07-13T16:36:32.546Z,3.40
2018-07-13T16:39:00.886Z,3.60
2018-07-13T16:41:29.245Z,3.93
2018-07-13T16:43:57.585Z,3.77
2018-07-13T16:46:25.954Z,4.10
2018-07-13T16:48:54.301Z,3.90
2018-07-13T16:51:22.730Z,3.87
2018-07-13T16:53:51.134Z,3.63
2018-07-13T16:56:19.705Z,3.70
2018-07-13T16:58:48.031Z,3.40
2018-07-13T17:01:16.385Z,3.80
2018-07-13T17:03:44.765Z,3.83
2018-07-13T17:06:13.267Z,3.93
2018-07-13T17:08:42.093Z,3.93
2018-07-13T17:11:10.434Z,3.90
2018-07-13T17:13:38.812Z,3.57
2018-07-13T17:16:07.153Z,3.23
2018-07-13T17:18:35.528Z,3.87
2018-07-13T17:21:04.054Z,3.87
2018-07-13T17:23:32.414Z,6.27
2018-07-13T17:26:01.222Z,4.90
2018-07-13T17:28:29.606Z,4.37
2018-07-13T17:30:57.953Z,3.53
2018-07-13T17:33:26.397Z,3.80
2018-07-13T17:35:54.779Z,3.93
2018-07-13T17:38:23.150Z,4.00
2018-07-13T17:40:52.365Z,3.87
2018-07-13T17:43:20.733Z,3.87
2018-07-13T17:45:49.118Z,3.53
2018-07-13T17:48:17.494Z,3.43
2018-07-13T17:50:45.845Z,4.07
2018-07-13T17:53:14.209Z,3.53
2018-07-13T17:55:42.633Z,4.47
2018-07-13T17:58:11.109Z,3.50
2018-07-13T18:00:39.512Z,4.17
2018-07-13T18:03:07.833Z,3.50
2018-07-13T18:05:36.411Z,3.20
2018-07-13T18:08:04.774Z,3.70
2018-07-13T18:10:33.123Z,3.70
2018-07-13T18:13:01.823Z,3.63
2018-07-13T18:15:29.870Z,3.63
2018-07-13T18:17:58.257Z,3.60
2018-07-13T18:20:26.635Z,4.20
2018-07-13T18:22:55.028Z,4.70
2018-07-13T18:25:23.430Z,4.70
2018-07-13T18:27:52.169Z,3.70
2018-07-13T18:30:20.603Z,3.60
2018-07-13T18:32:48.945Z,4.07
2018-07-13T18:35:17.366Z,3.50
2018-07-13T18:37:45.994Z,4.13
2018-07-13T18:40:14.538Z,3.73
2018-07-13T18:42:42.882Z,4.30
2018-07-13T18:45:11.384Z,4.30
2018-07-13T18:47:39.797Z,3.70
2018-07-13T18:50:08.197Z,4.20
2018-07-13T18:52:36.601Z,4.13
2018-07-13T18:55:05.157Z,3.90
2018-07-13T18:57:33.769Z,4.13
2018-07-13T19:00:02.177Z,3.80
2018-07-13T19:02:30.642Z,4.43
2018-07-13T19:04:59.018Z,3.93
2018-07-13T19:07:27.452Z,3.90
2018-07-13T19:09:58.962Z,4.17
2018-07-13T19:12:27.317Z,4.40
2018-07-13T19:14:55.833Z,3.60
2018-07-13T19:17:24.505Z,4.10
2018-07-13T19:19:53.114Z,4.30
2018-07-13T19:22:21.487Z,4.37
2018-07-13T19:24:49.870Z,4.40
2018-07-13T19:27:18.221Z,4.70
2018-07-13T19:29:46.646Z,7.13
2018-07-13T19:32:15.022Z,5.10
2018-07-13T19:34:43.605Z,4.67
2018-07-13T19:37:12.245Z,5.10
2018-07-13T19:39:40.650Z,5.17
2018-07-13T19:42:09.017Z,4.97
2018-07-13T19:44:37.465Z,6.20
2018-07-13T19:47:06.614Z,5.83
2018-07-13T19:49:35.353Z,4.97
2018-07-13T19:52:04.338Z,4.83
2018-07-13T19:54:33.031Z,5.13
2018-07-13T19:57:01.562Z,4.77
2018-07-13T19:59:29.874Z,5.13
2018-07-13T20:01:58.473Z,5.10
2018-07-13T20:04:26.971Z,6.10
2018-07-13T20:06:55.611Z,4.87
2018-07-13T20:09:24.997Z,5.37
2018-07-13T20:11:53.554Z,5.37
2018-07-13T20:14:22.646Z,5.40
2018-07-13T20:16:51.053Z,5.17
2018-07-13T20:19:19.531Z,5.77
2018-07-13T20:21:47.910Z,5.70
2018-07-13T20:24:16.502Z,6.00
2018-07-13T20:26:45.737Z,4.50
2018-07-13T20:29:14.834Z,5.50
2018-07-13T20:31:43.817Z,4.73
2018-07-13T20:34:12.220Z,4.80
2018-07-13T20:36:40.614Z,5.50
2018-07-13T20:39:09.077Z,5.57
2018-07-13T20:41:37.633Z,5.70
2018-07-13T20:44:06.509Z,5.73
2018-07-13T20:46:35.369Z,5.20
2018-07-13T20:49:04.217Z,5.83
2018-07-13T20:51:33.297Z,5.70
2018-07-13T20:54:02.469Z,5.50
2018-07-13T20:56:31.312Z,5.53
2018-07-13T20:58:59.723Z,4.87
2018-07-13T21:01:28.110Z,5.30
2018-07-13T21:03:56.774Z,5.47
2018-07-13T21:06:25.901Z,5.10
2018-07-13T21:08:54.872Z,5.33
2018-07-13T21:11:24.657Z,5.73
2018-07-13T21:13:54.545Z,5.10
2018-07-13T21:16:24.431Z,5.60
2018-07-13T21:18:53.476Z,6.23
2018-07-13T21:21:23.068Z,4.90
2018-07-13T21:23:52.808Z,5.43
2018-07-13T21:26:21.357Z,5.20
2018-07-13T21:28:50.114Z,5.33
2018-07-13T21:31:18.533Z,5.60
2018-07-13T21:33:46.905Z,6.53
2018-07-13T21:36:15.313Z,5.27
2018-07-13T21:38:43.727Z,5.40
2018-07-13T21:41:12.121Z,5.73
2018-07-13T21:43:40.493Z,5.60
2018-07-13T21:46:08.888Z,5.37
2018-07-13T21:48:37.257Z,5.63
2018-07-13T21:51:05.765Z,5.60
2018-07-13T21:53:34.157Z,5.07
2018-07-13T21:56:02.566Z,5.80
2018-07-13T21:58:30.978Z,5.30
2018-07-13T22:00:59.365Z,5.73
2018-07-13T22:03:27.770Z,4.87
2018-07-13T22:05:56.133Z,5.77
2018-07-13T22:08:24.499Z,5.63
2018-07-13T22:10:52.854Z,5.60
2018-07-13T22:13:21.442Z,5.73
2018-07-13T22:15:49.717Z,5.93
2018-07-13T22:18:18.091Z,5.37
2018-07-13T22:20:46.481Z,5.90
2018-07-13T22:23:15.150Z,5.70
2018-07-13T22:25:43.465Z,6.53
2018-07-13T22:28:11.918Z,7.07
2018-07-13T22:30:40.306Z,7.10
2018-07-13T22:33:08.665Z,7.10
2018-07-13T22:35:37.018Z,6.53
2018-07-13T22:38:05.422Z,6.97
2018-07-13T22:40:33.776Z,6.93
2018-07-13T22:43:02.161Z,6.53
2018-07-13T22:45:30.525Z,6.93
2018-07-13T22:47:58.925Z,7.60
2018-07-13T22:50:27.371Z,7.70
2018-07-13T22:52:55.738Z,7.30
2018-07-13T22:55:24.125Z,6.93
2018-07-13T22:57:52.545Z,6.63
2018-07-13T23:00:20.933Z,7.60
2018-07-13T23:02:49.330Z,6.80
2018-07-13T23:05:17.760Z,6.43
2018-07-13T23:07:46.203Z,7.00
2018-07-13T23:10:14.296Z,7.27
2018-07-13T23:12:42.684Z,6.50
2018-07-13T23:15:11.082Z,7.20
2018-07-13T23:17:39.562Z,7.40
2018-07-13T23:20:07.942Z,7.20
2018-07-13T23:22:36.474Z,5.87
2018-07-13T23:25:04.995Z,6.87
2018-07-13T23:27:33.426Z,6.80
2018-07-13T23:30:01.821Z,6.97
2018-07-13T23:32:30.198Z,6.80
2018-07-13T23:34:58.595Z,7.13
2018-07-13T23:37:27.002Z,7.30
2018-07-13T23:39:55.366Z,7.80
2018-07-13T23:42:23.787Z,7.30
2018-07-13T23:44:52.173Z,7.13
2018-07-13T23:47:20.577Z,7.20
2018-07-13T23:49:48.951Z,6.97
2018-07-13T23:52:17.377Z,7.13
2018-07-13T23:54:45.792Z,7.50
2018-07-13T23:57:14.161Z,6.90
2018-07-13T23:59:42.501Z,6.60
